CheckWX is a tool to help pilots better visualize weather data.  It is not intended as a substitute for an official pre-flight weather briefing.

02:32:14 UTC

MMTJ TAF
General Abelardo L. Rodríguez International Airport
Tijuana, Mexico
TAF MMTJ 222305Z 2300/2406 26015KT P6SM SKC TX20/2320Z TN10/2312Z FM230900 00000KT 5SM HZ BKN015 TEMPO 2310/2314 2SM BR FM231800 30012KT P6SM SCT250

Apr-23@
00:00 UTC

Apr-23 @ 00:00 UTC

Apr-23@
09:00 UTC

Apr-23 @ 09:00 UTC

TAF MMTJ 222305Z 2300/2406 26015KT P6SM SKC TX20/2320Z TN10/2312Z
Wind
  • 260° at 15 KTS
Cloud Levels
  • Clear skies

Apr-23@
09:00 UTC

Apr-23 @ 09:00 UTC

Apr-23@
18:00 UTC

Apr-23 @ 18:00 UTC

FM230900 00000KT 5SM HZ BKN015

From

From Standard forecast or significant change

Conditions
Haze
Cloud Levels
  • Broken at 1,500' AGL

Apr-23@
10:00 UTC

Apr-23 @ 10:00 UTC

Apr-23@
14:00 UTC

Apr-23 @ 14:00 UTC

TEMPO 2310/2314 2SM BR

Temporary

Temporary Changes expected for less than half the time period

Conditions
Mist

Apr-23@
18:00 UTC

Apr-23 @ 18:00 UTC

Apr-24@
06:00 UTC

Apr-24 @ 06:00 UTC

FM231800 30012KT P6SM SCT250

From

From Standard forecast or significant change

Wind
  • 300° at 12 KTS
Cloud Levels
  • Scattered at 25,000' AGL